createdAt,value
2023-02-05T00:02:44.861Z,101779.59
2023-02-05T00:05:47.747Z,101771.78
2023-02-05T00:08:50.310Z,101793.75
2023-02-05T00:11:53.147Z,101760.81
2023-02-05T00:14:55.737Z,101791.88
2023-02-05T00:17:58.356Z,101798.63
2023-02-05T00:21:00.950Z,101769.13
2023-02-05T00:24:04.020Z,101776.81
2023-02-05T00:27:07.751Z,101782.78
2023-02-05T00:30:10.986Z,101804.16
2023-02-05T00:33:13.567Z,101813.34
2023-02-05T00:36:17.936Z,101808.00
2023-02-05T00:39:20.486Z,101796.50
2023-02-05T00:42:23.119Z,101816.16
2023-02-05T00:45:25.670Z,101787.66
2023-02-05T00:48:28.326Z,101803.88
2023-02-05T00:51:30.960Z,101792.97
2023-02-05T00:54:38.513Z,101789.34
2023-02-05T00:57:43.795Z,101770.38
2023-02-05T01:00:46.877Z,101744.97
2023-02-05T01:03:49.508Z,101796.09
2023-02-05T01:06:52.287Z,101763.41
2023-02-05T01:09:57.716Z,101793.31
2023-02-05T01:13:00.348Z,101787.47
2023-02-05T01:16:03.097Z,101781.66
2023-02-05T01:19:05.779Z,101788.09
2023-02-05T01:22:08.451Z,101785.53
2023-02-05T01:25:13.104Z,101780.06
2023-02-05T01:28:16.074Z,101771.88
2023-02-05T01:31:22.566Z,101769.78
2023-02-05T01:34:25.347Z,101780.25
2023-02-05T01:37:28.000Z,101783.72
2023-02-05T01:40:36.576Z,101793.31
2023-02-05T01:43:41.440Z,101810.53
2023-02-05T01:46:45.541Z,101794.47
2023-02-05T01:49:48.541Z,101784.69
2023-02-05T01:52:52.613Z,101792.78
2023-02-05T01:56:19.363Z,101805.31
2023-02-05T01:59:25.663Z,101807.84
2023-02-05T02:02:30.521Z,101801.25
2023-02-05T02:05:33.426Z,101809.94
2023-02-05T02:08:36.308Z,101812.31
2023-02-05T02:11:42.739Z,101801.81
2023-02-05T02:14:53.295Z,101810.88
2023-02-05T02:18:19.849Z,101776.59
2023-02-05T02:21:31.328Z,101810.03
2023-02-05T02:25:25.301Z,101804.81
2023-02-05T02:28:29.792Z,101820.69
2023-02-05T02:31:46.771Z,101810.16
2023-02-05T02:34:56.103Z,101816.22
2023-02-05T02:38:04.748Z,101831.22
2023-02-05T02:41:22.123Z,101815.19
2023-02-05T02:44:35.581Z,101815.19
2023-02-05T02:47:41.245Z,101814.84
2023-02-05T02:50:46.174Z,101809.88
2023-02-05T02:53:54.686Z,101795.06
2023-02-05T02:56:58.202Z,101796.72
2023-02-05T03:00:03.006Z,101814.75
2023-02-05T03:03:09.140Z,101826.66
2023-02-05T03:06:13.803Z,101816.84
2023-02-05T03:09:32.811Z,101819.38
2023-02-05T03:12:38.018Z,101834.59
2023-02-05T03:15:43.668Z,101795.28
2023-02-05T03:18:47.971Z,101819.38
2023-02-05T03:21:54.877Z,101819.38
2023-02-05T03:24:57.766Z,101827.59
2023-02-05T03:28:01.356Z,101825.91
2023-02-05T03:31:14.602Z,101848.03
2023-02-05T03:34:17.750Z,101847.31
2023-02-05T03:37:46.344Z,101851.38
2023-02-05T03:41:16.420Z,101850.94
2023-02-05T03:44:28.320Z,101844.69
2023-02-05T03:47:42.695Z,101838.09
2023-02-05T03:51:06.118Z,101847.72
2023-02-05T03:54:46.654Z,101855.31
2023-02-05T03:58:02.678Z,101827.69
2023-02-05T04:01:07.449Z,101859.59
2023-02-05T04:04:13.392Z,101843.00
2023-02-05T04:07:16.698Z,101843.75
2023-02-05T04:10:24.732Z,101853.66
2023-02-05T04:13:32.121Z,101886.59
2023-02-05T04:16:35.407Z,101858.72
2023-02-05T04:19:39.194Z,101860.19
2023-02-05T04:22:42.110Z,101866.75
2023-02-05T04:25:44.986Z,101866.84
2023-02-05T04:28:52.837Z,101849.75
2023-02-05T04:31:56.324Z,101879.88
2023-02-05T04:35:02.077Z,101871.13
2023-02-05T04:38:04.694Z,101871.09
2023-02-05T04:41:08.359Z,101877.75
2023-02-05T04:44:10.915Z,101893.91
2023-02-05T04:47:14.241Z,101895.19
2023-02-05T04:50:19.487Z,101901.16
2023-02-05T04:53:22.112Z,101899.03
2023-02-05T04:56:24.783Z,101908.09
2023-02-05T04:59:27.376Z,101914.13
2023-02-05T05:02:30.043Z,101904.22
2023-02-05T05:05:38.844Z,101918.81
2023-02-05T05:08:44.807Z,101923.56
2023-02-05T05:11:55.275Z,101833.66
2023-02-05T05:14:57.806Z,101925.22
2023-02-05T05:18:00.457Z,101915.25
2023-02-05T05:21:04.049Z,101925.09
2023-02-05T05:24:06.972Z,101929.66
2023-02-05T05:27:09.545Z,101932.78
2023-02-05T05:30:12.744Z,101931.34
2023-02-05T05:33:15.449Z,101941.13
2023-02-05T05:36:18.681Z,101922.47
2023-02-05T05:39:39.825Z,101946.84
2023-02-05T05:43:07.071Z,101953.44
2023-02-05T05:46:09.672Z,101957.78
2023-02-05T05:49:12.193Z,101952.88
2023-02-05T05:52:14.770Z,101968.22
2023-02-05T05:55:17.425Z,101965.41
2023-02-05T05:58:25.198Z,101970.88
2023-02-05T06:01:30.273Z,101969.69
2023-02-05T06:04:33.050Z,101980.66
2023-02-05T06:07:35.669Z,101978.81
2023-02-05T06:10:38.319Z,101980.50
2023-02-05T06:13:42.050Z,101974.72
2023-02-05T06:16:45.880Z,101979.84
2023-02-05T06:19:48.430Z,101981.13
2023-02-05T06:22:54.072Z,102016.38
2023-02-05T06:25:56.850Z,102012.38
2023-02-05T06:29:03.444Z,102019.81
2023-02-05T06:32:06.372Z,102015.72
2023-02-05T06:35:11.292Z,101999.56
2023-02-05T06:38:16.548Z,102018.59
2023-02-05T06:41:19.236Z,102023.06
2023-02-05T06:44:24.546Z,102020.47
2023-02-05T06:47:27.063Z,102026.22
2023-02-05T06:50:32.794Z,101995.09
2023-02-05T06:53:35.353Z,102029.38
2023-02-05T06:56:40.298Z,102022.50
2023-02-05T06:59:42.838Z,102038.41
2023-02-05T07:02:45.605Z,102027.91
2023-02-05T07:05:48.208Z,102045.53
2023-02-05T07:08:51.479Z,102049.16
2023-02-05T07:11:54.122Z,102058.75
2023-02-05T07:14:56.730Z,102022.56
2023-02-05T07:17:59.383Z,102040.78
2023-02-05T07:21:12.055Z,102055.09
2023-02-05T07:24:14.926Z,102059.28
2023-02-05T07:27:17.610Z,102069.41
2023-02-05T07:30:22.311Z,102070.78
2023-02-05T07:33:24.824Z,102039.88
2023-02-05T07:36:28.443Z,102046.94
2023-02-05T07:39:31.258Z,102066.06
2023-02-05T07:42:33.860Z,102063.78
2023-02-05T07:45:38.133Z,102049.28
2023-02-05T07:48:41.969Z,102061.78
2023-02-05T07:51:44.537Z,102076.28
2023-02-05T07:54:47.280Z,102108.03
2023-02-05T07:57:49.877Z,102087.28
2023-02-05T08:00:52.557Z,102086.69
2023-02-05T08:03:59.782Z,102092.44
2023-02-05T08:07:04.073Z,102096.69
2023-02-05T08:10:13.444Z,102080.63
2023-02-05T08:13:16.078Z,102088.16
2023-02-05T08:16:19.873Z,102085.91
2023-02-05T08:19:22.463Z,102080.38
2023-02-05T08:22:25.037Z,102071.69
2023-02-05T08:25:27.668Z,102091.03
2023-02-05T08:28:33.368Z,102096.97
2023-02-05T08:31:39.406Z,102104.19
2023-02-05T08:34:50.396Z,102105.00
2023-02-05T08:37:54.800Z,102096.97
2023-02-05T08:41:04.913Z,102097.81
2023-02-05T08:44:09.097Z,102073.34
2023-02-05T08:47:11.695Z,102064.34
2023-02-05T08:50:15.767Z,102093.38
2023-02-05T08:53:21.927Z,102092.91
2023-02-05T08:56:24.616Z,102096.19
2023-02-05T08:59:30.486Z,102111.88
2023-02-05T09:02:33.104Z,102107.25
2023-02-05T09:05:38.605Z,102079.47
2023-02-05T09:08:41.260Z,102111.97
2023-02-05T09:11:48.144Z,102077.66
2023-02-05T09:14:50.723Z,102101.19
2023-02-05T09:17:53.220Z,102097.88
2023-02-05T09:20:58.447Z,102081.19
2023-02-05T09:24:01.053Z,102085.00
2023-02-05T09:27:06.519Z,102063.94
2023-02-05T09:30:09.845Z,102067.31
2023-02-05T09:33:13.274Z,102063.66
2023-02-05T09:36:23.002Z,102095.69
2023-02-05T09:43:28.801Z,102090.00
2023-02-05T09:46:45.311Z,102075.53
2023-02-05T09:49:52.548Z,102088.88
2023-02-05T09:53:07.198Z,102078.22
2023-02-05T09:56:10.342Z,102063.47
2023-02-05T09:59:29.083Z,102073.88
2023-02-05T10:03:02.924Z,102071.25
2023-02-05T10:06:24.282Z,102081.63
2023-02-05T10:09:45.506Z,102074.59
2023-02-05T10:13:14.537Z,102065.31
2023-02-05T10:16:55.976Z,102052.78
2023-02-05T10:20:33.472Z,102060.88
2023-02-05T10:23:54.167Z,102071.84
2023-02-05T10:27:22.434Z,102067.16
2023-02-05T10:30:30.222Z,102043.34
2023-02-05T10:33:41.951Z,102054.22
2023-02-05T10:36:49.275Z,102047.19
2023-02-05T10:39:52.816Z,102052.53
2023-02-05T10:43:27.312Z,102035.81
2023-02-05T10:46:34.040Z,102047.03
2023-02-05T10:49:38.821Z,102043.16
2023-02-05T10:52:41.466Z,102047.66
2023-02-05T10:55:44.025Z,102036.25
2023-02-05T10:58:50.924Z,102044.31
2023-02-05T11:01:55.029Z,102040.88
2023-02-05T11:05:02.552Z,102021.47
2023-02-05T11:08:05.665Z,102032.44
2023-02-05T11:11:19.038Z,102031.34
2023-02-05T11:14:35.811Z,102023.97
2023-02-05T11:17:38.683Z,102024.81
2023-02-05T11:20:41.423Z,102017.19
2023-02-05T11:23:57.779Z,102004.94
2023-02-05T11:27:29.976Z,102011.00
2023-02-05T11:30:50.891Z,102004.94
2023-02-05T11:34:23.236Z,102011.13
2023-02-05T11:37:28.628Z,102002.41
2023-02-05T11:40:32.568Z,102002.19
2023-02-05T11:43:57.962Z,102006.25
2023-02-05T11:47:06.102Z,101989.47
2023-02-05T11:50:24.436Z,101999.94
2023-02-05T11:53:27.421Z,102003.03
2023-02-05T11:56:33.299Z,101993.59
2023-02-05T11:59:36.510Z,102001.13
2023-02-05T12:02:45.501Z,101993.38
2023-02-05T12:05:53.062Z,101988.72
2023-02-05T12:08:58.315Z,101983.84
2023-02-05T12:12:01.204Z,101980.03
2023-02-05T12:15:27.174Z,101967.06
2023-02-05T12:19:07.944Z,101985.97
2023-02-05T12:22:13.527Z,101972.28
2023-02-05T12:25:30.428Z,101970.84
2023-02-05T12:29:07.520Z,101977.28
2023-02-05T12:32:38.019Z,101974.91
2023-02-05T12:36:07.529Z,101966.91
2023-02-05T12:39:46.818Z,101965.41
2023-02-05T12:43:02.499Z,101947.63
2023-02-05T12:46:22.208Z,101961.09
2023-02-05T12:49:24.859Z,101963.50
2023-02-05T12:52:55.363Z,101960.97
2023-02-05T12:56:18.469Z,101956.94
2023-02-05T12:59:42.953Z,101959.19
2023-02-05T13:03:06.419Z,101953.72
2023-02-05T13:06:10.890Z,101963.09
2023-02-05T13:09:18.971Z,101922.41
2023-02-05T13:12:24.809Z,101950.88
2023-02-05T13:15:43.028Z,101959.31
2023-02-05T13:19:23.983Z,101953.84
2023-02-05T13:23:02.754Z,101946.22
2023-02-05T13:26:25.489Z,101953.50
2023-02-05T13:29:32.221Z,101965.50
2023-02-05T13:32:35.968Z,101963.34
2023-02-05T13:35:58.549Z,101962.16
2023-02-05T13:39:33.776Z,101959.06
2023-02-05T13:42:48.878Z,101953.13
2023-02-05T13:46:32.677Z,101940.75
2023-02-05T13:50:06.006Z,101954.53
2023-02-05T13:53:41.897Z,101956.94
2023-02-05T13:57:21.679Z,101960.75
2023-02-05T14:00:32.298Z,101956.94
2023-02-05T14:03:41.006Z,101956.22
2023-02-05T14:06:47.704Z,101960.13
2023-02-05T14:09:56.508Z,101964.53
2023-02-05T14:13:24.823Z,101960.34
2023-02-05T14:16:30.338Z,101960.47
2023-02-05T14:19:32.941Z,101958.44
2023-02-05T14:22:44.966Z,101956.63
2023-02-05T14:26:03.212Z,101958.53
2023-02-05T14:29:31.402Z,101940.22
2023-02-05T14:32:41.530Z,101971.25
2023-02-05T14:35:49.710Z,101971.81
2023-02-05T14:39:12.075Z,101947.63
2023-02-05T14:42:21.431Z,101951.47
2023-02-05T14:45:27.883Z,101966.22
2023-02-05T14:48:35.906Z,101963.41
2023-02-05T14:51:48.769Z,101963.69
2023-02-05T14:55:01.056Z,101959.25
2023-02-05T14:58:11.698Z,101945.00
2023-02-05T15:01:34.724Z,101947.13
2023-02-05T15:04:50.544Z,101941.72
2023-02-05T15:08:02.404Z,101939.03
2023-02-05T15:11:23.404Z,101943.03
2023-02-05T15:14:33.287Z,101938.25
2023-02-05T15:17:40.233Z,101948.47
2023-02-05T15:20:47.504Z,101950.81
2023-02-05T15:24:22.220Z,101947.97
2023-02-05T15:28:08.179Z,101942.75
2023-02-05T15:31:45.700Z,101962.59
2023-02-05T15:34:55.773Z,101959.22
2023-02-05T15:38:32.706Z,101969.25
2023-02-05T15:41:42.025Z,101966.09
2023-02-05T15:44:44.706Z,101964.94
2023-02-05T15:48:02.148Z,101936.81
2023-02-05T15:51:28.899Z,101968.41
2023-02-05T15:54:35.872Z,101947.53
2023-02-05T15:57:43.037Z,101982.50
2023-02-05T16:00:49.399Z,101980.97
2023-02-05T16:03:54.672Z,101987.31
2023-02-05T16:06:58.040Z,101983.84
2023-02-05T16:10:02.333Z,101995.19
2023-02-05T16:13:16.171Z,101987.91
2023-02-05T16:16:22.648Z,102007.19
2023-02-05T16:19:36.107Z,102008.72
2023-02-05T16:22:40.943Z,101995.06
2023-02-05T16:25:46.781Z,102001.38
2023-02-05T16:28:56.304Z,102015.81
2023-02-05T16:32:12.720Z,102021.69
2023-02-05T16:35:27.667Z,102010.88
2023-02-05T16:38:31.065Z,102017.38
2023-02-05T16:41:36.200Z,102028.56
2023-02-05T16:44:42.657Z,101996.94
2023-02-05T16:47:45.644Z,102027.44
2023-02-05T16:50:52.369Z,102014.69
2023-02-05T16:54:00.781Z,102024.16
2023-02-05T16:57:14.727Z,102019.81
2023-02-05T17:00:29.698Z,102019.53
2023-02-05T17:03:36.745Z,102033.25
2023-02-05T17:06:42.728Z,102034.72
2023-02-05T17:09:45.601Z,102042.72
2023-02-05T17:12:52.504Z,102042.91
2023-02-05T17:15:55.526Z,102053.78
2023-02-05T17:19:04.707Z,102045.50
2023-02-05T17:22:13.705Z,102044.75
2023-02-05T17:25:23.006Z,102051.41
2023-02-05T17:28:31.677Z,102033.19
2023-02-05T17:31:37.429Z,102056.03
2023-02-05T17:34:41.196Z,102069.19
2023-02-05T17:37:44.115Z,102084.38
2023-02-05T17:40:48.547Z,102045.63
2023-02-05T17:43:51.499Z,102068.22
2023-02-05T17:47:02.980Z,102059.00
2023-02-05T17:50:11.885Z,102064.09
2023-02-05T17:53:14.616Z,102042.50
2023-02-05T17:56:19.308Z,102067.34
2023-02-05T17:59:24.365Z,102060.13
2023-02-05T18:02:27.144Z,102067.28
2023-02-05T18:05:29.916Z,102060.00
2023-02-05T18:08:36.258Z,102058.16
2023-02-05T18:11:40.633Z,102061.47
2023-02-05T18:14:43.351Z,102053.63
2023-02-05T18:17:52.442Z,102055.97
2023-02-05T18:20:55.288Z,102039.78
2023-02-05T18:23:57.913Z,102058.56
2023-02-05T18:27:04.919Z,102047.00
2023-02-05T18:30:08.578Z,102071.81
2023-02-05T18:33:14.091Z,102065.59
2023-02-05T18:36:20.069Z,102073.91
2023-02-05T18:39:30.765Z,102060.75
2023-02-05T18:42:34.502Z,102067.50
2023-02-05T18:45:42.001Z,102058.16
2023-02-05T18:48:45.909Z,102082.44
2023-02-05T18:51:48.789Z,102082.38
2023-02-05T18:54:51.499Z,102096.75
2023-02-05T18:58:02.133Z,102097.59
2023-02-05T19:01:11.657Z,102092.97
2023-02-05T19:04:15.613Z,102093.66
2023-02-05T19:07:20.569Z,102080.09
2023-02-05T19:10:25.837Z,102082.94
2023-02-05T19:13:28.538Z,102099.38
2023-02-05T19:16:33.781Z,102103.66
2023-02-05T19:19:36.617Z,102105.31
2023-02-05T19:22:39.403Z,102115.34
2023-02-05T19:25:43.972Z,102101.75
2023-02-05T19:28:51.382Z,102095.91
2023-02-05T19:31:54.204Z,102109.94
2023-02-05T19:34:57.031Z,102121.66
2023-02-05T19:37:59.782Z,102123.25
2023-02-05T19:41:15.930Z,102126.28
2023-02-05T19:44:19.300Z,102132.63
2023-02-05T19:47:25.084Z,102137.69
2023-02-05T19:50:28.105Z,102133.66
2023-02-05T19:53:31.053Z,102133.06
2023-02-05T19:56:38.158Z,102139.03
2023-02-05T19:59:44.364Z,102130.81
2023-02-05T20:02:49.200Z,102146.88
2023-02-05T20:05:52.499Z,102144.13
2023-02-05T20:08:55.670Z,102151.44
2023-02-05T20:11:58.397Z,102146.88
2023-02-05T20:15:00.971Z,102147.19
2023-02-05T20:18:06.394Z,102150.47
2023-02-05T20:21:17.016Z,102149.13
2023-02-05T20:24:19.918Z,102166.41
2023-02-05T20:27:22.683Z,102180.41
2023-02-05T20:30:43.888Z,102161.63
2023-02-05T20:33:50.400Z,102167.13
2023-02-05T20:36:57.251Z,102172.09
2023-02-05T20:40:00.108Z,102159.22
2023-02-05T20:43:08.020Z,102177.13
2023-02-05T20:46:11.007Z,102184.53
2023-02-05T20:49:13.965Z,102164.13
2023-02-05T20:52:16.599Z,102182.00
2023-02-05T20:55:19.297Z,102190.66
2023-02-05T20:58:22.476Z,102182.69
2023-02-05T21:01:26.906Z,102183.59
2023-02-05T21:04:29.812Z,102167.22
2023-02-05T21:07:32.597Z,102182.25
2023-02-05T21:10:35.583Z,102163.75
2023-02-05T21:13:42.144Z,102192.06
2023-02-05T21:16:44.850Z,102180.09
2023-02-05T21:19:50.739Z,102179.66
2023-02-05T21:22:53.328Z,102186.06
2023-02-05T21:25:56.034Z,102193.59
2023-02-05T21:29:01.338Z,102200.56
2023-02-05T21:32:04.141Z,102197.56
2023-02-05T21:35:07.108Z,102186.22
2023-02-05T21:38:09.872Z,102206.53
2023-02-05T21:41:14.885Z,102205.66
2023-02-05T21:44:20.689Z,102213.81
2023-02-05T21:47:23.238Z,102222.84
2023-02-05T21:50:28.422Z,102225.44
2023-02-05T21:53:34.016Z,102236.78
2023-02-05T21:56:41.656Z,102221.94
2023-02-05T21:59:44.452Z,102249.28
2023-02-05T22:02:48.413Z,102227.56
2023-02-05T22:05:58.446Z,102250.25
2023-02-05T22:09:03.963Z,102264.38
2023-02-05T22:12:06.603Z,102272.56
2023-02-05T22:15:09.682Z,102288.56
2023-02-05T22:18:18.196Z,102287.00
2023-02-05T22:21:23.631Z,102284.00
2023-02-05T22:24:26.223Z,102272.41
2023-02-05T22:27:29.928Z,102295.44
2023-02-05T22:30:36.106Z,102297.59
2023-02-05T22:33:46.767Z,102276.78
2023-02-05T22:36:49.411Z,102297.34
2023-02-05T22:39:52.048Z,102298.75
2023-02-05T22:42:54.602Z,102287.25
2023-02-05T22:46:17.458Z,102304.19
2023-02-05T22:49:20.009Z,102301.81
2023-02-05T22:52:22.566Z,102303.41
2023-02-05T22:55:25.172Z,102304.34
2023-02-05T22:58:27.705Z,102297.94
2023-02-05T23:01:32.969Z,102310.69
2023-02-05T23:04:40.508Z,102305.75
2023-02-05T23:07:43.547Z,102299.09
2023-02-05T23:10:46.169Z,102316.84
2023-02-05T23:13:49.223Z,102298.75
2023-02-05T23:16:51.881Z,102311.84
2023-02-05T23:19:54.498Z,102305.53
2023-02-05T23:22:57.549Z,102305.91
2023-02-05T23:26:08.685Z,102279.59
2023-02-05T23:29:15.983Z,102306.88
2023-02-05T23:32:18.616Z,102296.66
2023-02-05T23:35:21.191Z,102324.25
2023-02-05T23:38:25.221Z,102320.75
2023-02-05T23:41:37.309Z,102330.06
2023-02-05T23:44:39.974Z,102310.56
2023-02-05T23:47:42.484Z,102339.72
2023-02-05T23:50:48.636Z,102324.25
2023-02-05T23:53:51.424Z,102319.63
2023-02-05T23:56:55.173Z,102328.28
2023-02-05T23:59:57.760Z,102321.38
